createdAt,value
2022-08-24T00:01:32.441Z,3.60
2022-08-24T00:04:17.534Z,3.30
2022-08-24T00:07:04.276Z,3.08
2022-08-24T00:09:50.736Z,3.05
2022-08-24T00:12:36.662Z,3.33
2022-08-24T00:15:21.959Z,3.27
2022-08-24T00:18:07.406Z,2.88
2022-08-24T00:20:53.199Z,3.17
2022-08-24T00:23:38.350Z,3.20
2022-08-24T00:26:28.626Z,2.90
2022-08-24T00:29:17.247Z,3.23
2022-08-24T00:32:02.708Z,2.90
2022-08-24T00:34:58.664Z,2.72
2022-08-24T00:37:45.626Z,3.22
2022-08-24T00:40:37.405Z,2.80
2022-08-24T00:43:25.580Z,3.00
2022-08-24T00:46:20.633Z,2.88
2022-08-24T00:49:13.879Z,2.80
2022-08-24T00:52:14.254Z,3.17
2022-08-24T00:55:12.681Z,3.10
2022-08-24T00:58:08.049Z,3.40
2022-08-24T01:00:59.592Z,3.10
2022-08-24T01:03:46.341Z,2.63
2022-08-24T01:06:33.393Z,3.10
2022-08-24T01:09:18.556Z,3.25
2022-08-24T01:12:04.826Z,3.13
2022-08-24T01:14:50.038Z,3.13
2022-08-24T01:17:55.158Z,2.97
2022-08-24T01:20:53.595Z,2.83
2022-08-24T01:23:47.019Z,2.80
2022-08-24T01:26:35.720Z,2.90
2022-08-24T01:29:27.900Z,3.13
2022-08-24T01:32:14.107Z,2.85
2022-08-24T01:34:59.609Z,2.90
2022-08-24T01:37:44.790Z,2.80
2022-08-24T01:40:40.310Z,3.00
2022-08-24T01:43:26.092Z,2.60
2022-08-24T01:46:11.309Z,2.65
2022-08-24T01:48:58.242Z,2.60
2022-08-24T01:51:43.800Z,2.80
2022-08-24T01:54:29.153Z,2.70
2022-08-24T01:57:17.007Z,2.90
2022-08-24T02:00:07.223Z,2.75
2022-08-24T02:02:58.334Z,2.60
2022-08-24T02:05:43.561Z,2.60
2022-08-24T02:08:34.426Z,2.60
2022-08-24T02:11:19.655Z,2.65
2022-08-24T02:14:05.940Z,2.60
2022-08-24T02:16:51.504Z,2.80
2022-08-24T02:19:44.651Z,2.75
2022-08-24T02:22:29.918Z,2.40
2022-08-24T02:25:16.687Z,2.92
2022-08-24T02:28:02.726Z,2.50
2022-08-24T02:30:48.869Z,2.35
2022-08-24T02:33:35.458Z,2.67
2022-08-24T02:36:25.275Z,2.47
2022-08-24T02:39:11.647Z,2.60
2022-08-24T02:41:56.993Z,2.55
2022-08-24T02:44:42.430Z,2.92
2022-08-24T02:47:38.135Z,2.83
2022-08-24T02:50:23.879Z,2.60
2022-08-24T02:53:10.194Z,2.47
2022-08-24T02:55:55.953Z,2.72
2022-08-24T02:58:43.413Z,2.70
2022-08-24T03:01:30.658Z,2.80
2022-08-24T03:04:17.368Z,2.70
2022-08-24T03:07:03.213Z,2.78
2022-08-24T03:09:48.621Z,2.65
2022-08-24T03:12:34.787Z,2.97
2022-08-24T03:15:24.218Z,3.00
2022-08-24T03:18:09.606Z,3.00
2022-08-24T03:20:57.621Z,2.78
2022-08-24T03:23:43.498Z,2.67
2022-08-24T03:26:29.969Z,2.90
2022-08-24T03:29:15.825Z,2.90
2022-08-24T03:32:01.941Z,4.37
2022-08-24T03:34:47.539Z,4.00
2022-08-24T03:37:33.083Z,3.72
2022-08-24T03:40:23.005Z,3.20
2022-08-24T03:43:30.149Z,2.95
2022-08-24T03:46:22.283Z,3.23
2022-08-24T03:49:10.420Z,3.30
2022-08-24T03:51:56.245Z,3.22
2022-08-24T03:54:42.056Z,2.85
2022-08-24T03:57:27.647Z,3.35
2022-08-24T04:00:13.622Z,3.83
2022-08-24T04:03:10.006Z,4.40
2022-08-24T04:05:55.819Z,4.70
2022-08-24T04:08:42.645Z,5.43
2022-08-24T04:11:29.302Z,5.25
2022-08-24T04:14:27.541Z,5.93
2022-08-24T04:17:24.718Z,6.35
2022-08-24T04:20:10.835Z,6.25
2022-08-24T04:22:58.016Z,6.35
2022-08-24T04:25:46.591Z,6.60
2022-08-24T04:28:32.237Z,6.93
2022-08-24T04:31:18.253Z,6.53
2022-08-24T04:34:04.513Z,7.15
2022-08-24T04:36:49.860Z,6.28
2022-08-24T04:39:34.955Z,6.72
2022-08-24T04:42:38.721Z,6.50
2022-08-24T04:45:25.596Z,7.38
2022-08-24T04:48:11.363Z,6.68
2022-08-24T04:51:02.832Z,6.70
2022-08-24T04:53:50.296Z,7.10
2022-08-24T04:56:36.371Z,6.47
2022-08-24T04:59:21.583Z,7.38
2022-08-24T05:02:07.002Z,7.10
2022-08-24T05:04:54.938Z,6.70
2022-08-24T05:07:41.463Z,6.55
2022-08-24T05:10:26.836Z,6.50
2022-08-24T05:13:19.746Z,6.35
2022-08-24T05:16:10.473Z,5.72
2022-08-24T05:18:56.669Z,6.13
2022-08-24T05:21:44.326Z,6.25
2022-08-24T05:24:30.047Z,6.20
2022-08-24T05:27:19.007Z,6.03
2022-08-24T05:30:05.794Z,5.50
2022-08-24T05:32:51.008Z,5.40
2022-08-24T05:35:43.820Z,6.80
2022-08-24T05:38:29.901Z,6.47
2022-08-24T05:41:16.587Z,6.57
2022-08-24T05:44:06.504Z,6.30
2022-08-24T05:46:51.977Z,6.90
2022-08-24T05:49:41.357Z,6.57
2022-08-24T05:52:28.106Z,6.57
2022-08-24T05:55:13.430Z,6.72
2022-08-24T05:58:00.057Z,7.07
2022-08-24T06:00:45.669Z,8.38
2022-08-24T06:03:31.095Z,8.20
2022-08-24T06:06:17.691Z,7.90
2022-08-24T06:09:03.802Z,7.28
2022-08-24T06:11:50.432Z,8.25
2022-08-24T06:14:36.776Z,8.20
2022-08-24T06:17:23.232Z,7.80
2022-08-24T06:20:10.457Z,6.93
2022-08-24T06:22:55.957Z,7.38
2022-08-24T06:26:05.529Z,9.40
2022-08-24T06:28:52.207Z,9.65
2022-08-24T06:31:41.960Z,9.75
2022-08-24T06:34:28.762Z,10.00
2022-08-24T06:37:14.899Z,10.38
2022-08-24T06:40:00.344Z,9.77
2022-08-24T06:42:47.074Z,11.50
2022-08-24T06:45:44.890Z,11.80
2022-08-24T06:48:31.901Z,10.87
2022-08-24T06:51:19.620Z,12.00
2022-08-24T06:54:05.125Z,11.68
2022-08-24T06:56:50.835Z,12.32
2022-08-24T06:59:36.691Z,11.82
2022-08-24T07:02:22.153Z,10.70
2022-08-24T07:05:08.163Z,12.30
2022-08-24T07:08:16.149Z,13.32
2022-08-24T07:11:02.421Z,14.27
2022-08-24T07:13:49.486Z,12.80
2022-08-24T07:16:35.604Z,11.80
2022-08-24T07:19:22.287Z,10.95
2022-08-24T07:22:07.571Z,11.18
2022-08-24T07:24:52.773Z,12.93
2022-08-24T07:27:39.636Z,11.70
2022-08-24T07:30:27.722Z,11.93
2022-08-24T07:33:15.078Z,11.93
2022-08-24T07:36:00.351Z,13.18
2022-08-24T07:38:46.796Z,12.77
2022-08-24T07:41:51.428Z,11.80
2022-08-24T07:44:44.296Z,11.80
2022-08-24T07:47:54.766Z,11.10
2022-08-24T07:50:46.394Z,11.65
2022-08-24T07:53:50.457Z,10.40
2022-08-24T07:56:37.891Z,10.07
2022-08-24T07:59:23.202Z,8.60
2022-08-24T08:02:11.656Z,8.93
2022-08-24T08:04:59.458Z,8.90
2022-08-24T08:07:51.550Z,9.18
2022-08-24T08:10:38.123Z,8.52
2022-08-24T08:13:25.248Z,8.30
2022-08-24T08:16:11.353Z,7.35
2022-08-24T08:19:11.992Z,8.25
2022-08-24T08:22:19.907Z,8.02
2022-08-24T08:25:25.059Z,8.07
2022-08-24T08:28:25.435Z,7.13
2022-08-24T08:31:12.804Z,8.15
2022-08-24T08:33:58.698Z,8.52
2022-08-24T08:36:45.406Z,8.30
2022-08-24T08:39:32.019Z,8.68
2022-08-24T08:42:33.068Z,8.40
2022-08-24T08:45:29.924Z,8.20
2022-08-24T08:48:49.989Z,8.55
2022-08-24T08:51:48.549Z,8.13
2022-08-24T08:54:45.762Z,8.50
2022-08-24T08:57:38.085Z,8.47
2022-08-24T09:00:28.323Z,8.50
2022-08-24T09:03:38.747Z,7.97
2022-08-24T09:06:57.615Z,8.50
2022-08-24T09:10:10.045Z,9.20
2022-08-24T09:13:14.760Z,8.53
2022-08-24T09:16:22.174Z,8.30
2022-08-24T09:19:32.041Z,8.93
2022-08-24T09:22:21.343Z,8.80
2022-08-24T09:25:28.569Z,8.30
2022-08-24T09:28:43.709Z,8.83
2022-08-24T09:31:44.919Z,9.65
2022-08-24T09:34:37.131Z,8.52
2022-08-24T09:37:33.515Z,8.10
2022-08-24T09:40:52.893Z,8.07
2022-08-24T09:43:47.361Z,8.63
2022-08-24T09:46:58.843Z,8.68
2022-08-24T09:50:02.720Z,9.00
2022-08-24T09:53:03.169Z,8.32
2022-08-24T09:56:03.859Z,7.72
2022-08-24T09:58:54.386Z,8.27
2022-08-24T10:02:00.373Z,8.25
2022-08-24T10:05:02.202Z,8.00
2022-08-24T10:08:05.132Z,8.45
2022-08-24T10:11:18.488Z,8.40
2022-08-24T10:14:17.464Z,8.47
2022-08-24T10:17:22.807Z,8.52
2022-08-24T10:20:25.534Z,8.18
2022-08-24T10:23:26.213Z,8.15
2022-08-24T10:26:49.460Z,8.73
2022-08-24T10:30:09.322Z,7.13
2022-08-24T10:33:20.623Z,8.13
2022-08-24T10:36:24.144Z,8.10
2022-08-24T10:39:43.451Z,7.38
2022-08-24T10:43:02.303Z,7.53
2022-08-24T10:46:12.502Z,7.27
2022-08-24T10:49:25.777Z,7.55
2022-08-24T10:52:22.073Z,7.90
2022-08-24T10:55:35.026Z,7.78
2022-08-24T10:58:34.854Z,7.05
2022-08-24T11:01:34.423Z,7.53
2022-08-24T11:04:28.429Z,7.70
2022-08-24T11:07:21.544Z,7.80
2022-08-24T11:10:10.160Z,7.38
2022-08-24T11:12:56.122Z,7.90
2022-08-24T11:15:54.428Z,8.00
2022-08-24T11:18:49.446Z,7.53
2022-08-24T11:21:51.672Z,7.55
2022-08-24T11:24:43.247Z,7.03
2022-08-24T11:27:31.207Z,7.50
2022-08-24T11:30:23.372Z,7.40
2022-08-24T11:33:32.418Z,7.65
2022-08-24T11:36:21.558Z,7.15
2022-08-24T11:39:36.522Z,7.78
2022-08-24T11:42:35.736Z,7.18
2022-08-24T11:45:34.242Z,7.40
2022-08-24T11:48:25.701Z,7.05
2022-08-24T11:51:26.314Z,7.03
2022-08-24T11:54:31.278Z,7.32
2022-08-24T11:57:29.373Z,7.10
2022-08-24T12:00:19.453Z,7.37
2022-08-24T12:03:23.864Z,7.35
2022-08-24T12:06:32.433Z,7.25
2022-08-24T12:09:36.325Z,7.65
2022-08-24T12:12:26.144Z,7.30
2022-08-24T12:15:21.084Z,7.50
2022-08-24T12:18:22.037Z,7.50
2022-08-24T12:21:12.787Z,7.20
2022-08-24T12:24:01.986Z,6.97
2022-08-24T12:26:51.163Z,7.07
2022-08-24T12:29:44.740Z,6.83
2022-08-24T12:32:42.713Z,6.53
2022-08-24T12:35:42.611Z,6.22
2022-08-24T12:38:30.360Z,6.95
2022-08-24T12:41:24.208Z,6.80
2022-08-24T12:44:15.811Z,6.43
2022-08-24T12:47:01.433Z,6.88
2022-08-24T12:49:53.185Z,6.47
2022-08-24T12:53:13.571Z,6.70
2022-08-24T12:56:20.559Z,6.28
2022-08-24T12:59:16.175Z,7.10
2022-08-24T13:02:06.098Z,7.03
2022-08-24T13:04:51.159Z,7.05
2022-08-24T13:07:44.480Z,7.47
2022-08-24T13:10:38.088Z,6.75
2022-08-24T13:13:59.435Z,6.30
2022-08-24T13:17:04.769Z,6.53
2022-08-24T13:20:28.286Z,6.50
2022-08-24T13:23:14.465Z,6.43
2022-08-24T13:26:22.960Z,6.38
2022-08-24T13:29:08.951Z,5.90
2022-08-24T13:31:59.272Z,6.65
2022-08-24T13:34:47.012Z,6.15
2022-08-24T13:37:32.283Z,6.22
2022-08-24T13:40:27.915Z,6.43
2022-08-24T13:43:30.436Z,6.30
2022-08-24T13:46:46.642Z,5.38
2022-08-24T13:50:07.752Z,5.90
2022-08-24T13:53:30.004Z,6.03
2022-08-24T13:56:31.015Z,5.65
2022-08-24T13:59:39.930Z,5.77
2022-08-24T14:02:51.447Z,5.95
2022-08-24T14:05:43.552Z,6.10
2022-08-24T14:08:54.425Z,6.30
2022-08-24T14:11:57.857Z,5.70
2022-08-24T14:15:03.173Z,5.53
2022-08-24T14:18:07.598Z,5.70
2022-08-24T14:21:06.201Z,5.50
2022-08-24T14:24:08.738Z,5.40
2022-08-24T14:27:04.863Z,5.90
2022-08-24T14:29:50.318Z,5.57
2022-08-24T14:32:44.875Z,5.50
2022-08-24T14:35:42.071Z,5.28
2022-08-24T14:38:43.614Z,5.45
2022-08-24T14:41:52.428Z,5.72
2022-08-24T14:45:00.097Z,5.33
2022-08-24T14:48:08.231Z,5.40
2022-08-24T14:51:31.603Z,5.13
2022-08-24T14:54:27.884Z,5.45
2022-08-24T14:57:16.116Z,5.80
2022-08-24T15:00:04.931Z,5.50
2022-08-24T15:03:08.313Z,5.10
2022-08-24T15:06:28.143Z,5.45
2022-08-24T15:09:27.723Z,5.35
2022-08-24T15:12:42.601Z,5.00
2022-08-24T15:15:39.492Z,4.97
2022-08-24T15:18:36.821Z,5.10
2022-08-24T15:21:41.383Z,5.07
2022-08-24T15:24:52.480Z,5.00
2022-08-24T15:27:55.874Z,5.07
2022-08-24T15:30:53.164Z,4.90
2022-08-24T15:34:11.282Z,5.05
2022-08-24T15:37:01.587Z,5.18
2022-08-24T15:39:47.040Z,4.88
2022-08-24T15:42:37.115Z,5.20
2022-08-24T15:45:22.554Z,4.90
2022-08-24T15:48:10.792Z,4.85
2022-08-24T15:50:56.434Z,5.18
2022-08-24T15:53:42.021Z,4.82
2022-08-24T15:56:35.637Z,4.75
2022-08-24T16:02:50.670Z,4.82
2022-08-24T16:05:37.322Z,5.18
2022-08-24T16:08:23.836Z,5.15
2022-08-24T16:11:26.259Z,4.78
2022-08-24T16:14:23.138Z,4.97
2022-08-24T16:17:30.497Z,5.00
2022-08-24T16:20:24.971Z,5.10
2022-08-24T16:23:13.957Z,4.80
2022-08-24T16:26:21.980Z,4.90
2022-08-24T16:29:07.545Z,4.10
2022-08-24T16:32:15.901Z,5.18
2022-08-24T16:35:08.217Z,5.00
2022-08-24T16:37:55.346Z,4.80
2022-08-24T16:40:40.720Z,4.95
2022-08-24T16:43:26.718Z,4.70
2022-08-24T16:46:12.959Z,4.68
2022-08-24T16:48:58.984Z,5.95
2022-08-24T16:51:45.449Z,6.45
2022-08-24T16:54:31.700Z,6.60
2022-08-24T16:57:20.871Z,6.47
2022-08-24T17:00:09.210Z,6.70
2022-08-24T17:02:55.131Z,6.75
2022-08-24T17:05:40.424Z,6.30
2022-08-24T17:08:28.515Z,6.53
2022-08-24T17:11:14.463Z,6.40
2022-08-24T17:13:59.703Z,6.15
2022-08-24T17:16:44.665Z,6.50
2022-08-24T17:19:31.226Z,6.20
2022-08-24T17:22:16.716Z,6.03
2022-08-24T17:25:02.053Z,6.03
2022-08-24T17:27:47.606Z,6.13
2022-08-24T17:30:33.081Z,6.20
2022-08-24T17:33:18.618Z,7.55
2022-08-24T17:36:05.467Z,8.10
2022-08-24T17:38:55.856Z,11.77
2022-08-24T17:41:41.494Z,10.18
2022-08-24T17:44:30.350Z,9.63
2022-08-24T17:47:17.407Z,9.27
2022-08-24T17:50:06.467Z,9.15
2022-08-24T17:52:58.862Z,8.33
2022-08-24T17:55:45.408Z,11.15
2022-08-24T17:58:30.769Z,12.82
2022-08-24T18:01:16.010Z,10.18
2022-08-24T18:04:04.516Z,9.50
2022-08-24T18:06:49.718Z,9.40
2022-08-24T18:09:43.061Z,9.63
2022-08-24T18:12:28.143Z,9.32
2022-08-24T18:15:13.235Z,8.75
2022-08-24T18:18:01.403Z,8.45
2022-08-24T18:20:46.767Z,8.47
2022-08-24T18:23:32.171Z,8.13
2022-08-24T18:26:27.662Z,8.05
2022-08-24T18:29:17.453Z,7.40
2022-08-24T18:32:03.895Z,7.00
2022-08-24T18:34:49.532Z,6.80
2022-08-24T18:37:34.917Z,6.90
2022-08-24T18:40:21.681Z,6.55
2022-08-24T18:43:09.038Z,6.90
2022-08-24T18:45:54.800Z,6.80
2022-08-24T18:48:39.871Z,6.90
2022-08-24T18:51:28.131Z,6.85
2022-08-24T18:54:32.390Z,7.35
2022-08-24T18:57:18.473Z,7.10
2022-08-24T19:00:05.481Z,7.18
2022-08-24T19:02:51.080Z,6.63
2022-08-24T19:05:36.245Z,6.90
2022-08-24T19:08:21.375Z,6.90
2022-08-24T19:11:07.660Z,6.93
2022-08-24T19:13:52.749Z,6.55
2022-08-24T19:16:38.243Z,6.27
2022-08-24T19:19:23.865Z,6.55
2022-08-24T19:22:10.544Z,6.90
2022-08-24T19:24:58.070Z,6.55
2022-08-24T19:27:43.444Z,6.70
2022-08-24T19:30:28.475Z,5.70
2022-08-24T19:33:19.930Z,5.65
2022-08-24T19:36:06.142Z,6.15
2022-08-24T19:38:51.151Z,6.00
2022-08-24T19:41:42.342Z,5.75
2022-08-24T19:44:51.863Z,5.73
2022-08-24T19:47:37.974Z,6.18
2022-08-24T19:50:26.031Z,6.10
2022-08-24T19:53:13.761Z,5.82
2022-08-24T19:55:59.439Z,5.78
2022-08-24T19:58:58.256Z,5.77
2022-08-24T20:01:43.575Z,5.60
2022-08-24T20:04:28.741Z,5.22
2022-08-24T20:07:17.157Z,5.85
2022-08-24T20:10:13.003Z,5.75
2022-08-24T20:12:58.206Z,5.67
2022-08-24T20:15:43.624Z,5.68
2022-08-24T20:18:35.039Z,5.55
2022-08-24T20:21:20.333Z,5.40
2022-08-24T20:24:06.362Z,5.72
2022-08-24T20:26:51.514Z,5.63
2022-08-24T20:29:36.635Z,5.70
2022-08-24T20:32:21.861Z,5.90
2022-08-24T20:35:08.225Z,5.80
2022-08-24T20:37:54.191Z,6.00
2022-08-24T20:40:39.383Z,6.13
2022-08-24T20:43:24.527Z,6.00
2022-08-24T20:46:09.957Z,6.43
2022-08-24T20:48:57.238Z,5.93
2022-08-24T20:51:42.590Z,5.90
2022-08-24T20:54:28.476Z,6.20
2022-08-24T20:57:18.124Z,6.00
2022-08-24T21:00:06.210Z,5.80
2022-08-24T21:02:52.349Z,5.88
2022-08-24T21:05:39.006Z,5.43
2022-08-24T21:08:25.786Z,5.70
2022-08-24T21:11:10.987Z,5.72
2022-08-24T21:13:55.883Z,5.60
2022-08-24T21:16:42.059Z,5.53
2022-08-24T21:19:27.908Z,5.25
2022-08-24T21:22:12.952Z,5.60
2022-08-24T21:25:01.439Z,5.50
2022-08-24T21:27:48.321Z,6.10
2022-08-24T21:30:34.964Z,5.32
2022-08-24T21:33:39.811Z,5.55
2022-08-24T21:36:26.312Z,5.53
2022-08-24T21:39:11.422Z,5.22
2022-08-24T21:41:56.514Z,5.30
2022-08-24T21:44:42.227Z,5.20
2022-08-24T21:47:27.570Z,5.20
2022-08-24T21:50:14.683Z,5.00
2022-08-24T21:53:00.344Z,5.07
2022-08-24T21:55:45.942Z,4.90
2022-08-24T21:58:31.520Z,5.28
2022-08-24T22:01:17.074Z,5.13
2022-08-24T22:04:02.544Z,4.87
2022-08-24T22:06:47.758Z,4.93
2022-08-24T22:09:32.947Z,4.70
2022-08-24T22:12:18.507Z,4.70
2022-08-24T22:15:06.366Z,4.63
2022-08-24T22:17:52.598Z,4.73
2022-08-24T22:20:37.915Z,5.05
2022-08-24T22:23:24.211Z,4.85
2022-08-24T22:26:10.598Z,4.30
2022-08-24T22:28:56.802Z,4.72
2022-08-24T22:31:45.067Z,4.80
2022-08-24T22:34:30.962Z,4.57
2022-08-24T22:37:16.435Z,4.55
2022-08-24T22:40:03.577Z,4.63
2022-08-24T22:42:48.926Z,5.22
2022-08-24T22:45:34.301Z,5.03
2022-08-24T22:48:19.808Z,4.57
2022-08-24T22:51:11.163Z,4.57
2022-08-24T22:53:57.832Z,4.88
2022-08-24T22:56:51.682Z,4.55
2022-08-24T22:59:40.322Z,4.50
2022-08-24T23:02:25.937Z,5.00
2022-08-24T23:05:11.188Z,4.50
2022-08-24T23:07:56.097Z,4.72
2022-08-24T23:10:41.413Z,4.63
2022-08-24T23:13:28.685Z,4.37
2022-08-24T23:16:14.223Z,4.68
2022-08-24T23:19:18.490Z,4.65
2022-08-24T23:22:04.619Z,4.57
2022-08-24T23:24:49.881Z,4.20
2022-08-24T23:27:38.549Z,5.10
2022-08-24T23:30:24.446Z,4.60
2022-08-24T23:33:09.247Z,5.10
2022-08-24T23:35:54.977Z,4.80
2022-08-24T23:38:41.889Z,5.28
2022-08-24T23:41:32.568Z,4.80
2022-08-24T23:44:20.562Z,5.03
2022-08-24T23:47:06.753Z,4.78
2022-08-24T23:49:51.823Z,4.70
2022-08-24T23:52:38.347Z,4.80
2022-08-24T23:55:24.728Z,4.40
2022-08-24T23:58:09.918Z,4.63
